sensor_id;sensor_type;location;lat;lon;timestamp;temperature;humidity
25628;DHT22;40915;50.826;4.356;2024-01-30T00:01:39;11.00;99.90
25628;DHT22;40915;50.826;4.356;2024-01-30T00:04:05;11.00;99.90
25628;DHT22;40915;50.826;4.356;2024-01-30T00:06:30;10.90;99.90
25628;DHT22;40915;50.826;4.356;2024-01-30T00:08:57;10.90;99.90
25628;DHT22;40915;50.826;4.356;2024-01-30T00:11:22;10.90;99.90
25628;DHT22;40915;50.826;4.356;2024-01-30T00:13:51;11.00;99.90
25628;DHT22;40915;50.826;4.356;2024-01-30T00:16:20;11.00;99.90
25628;DHT22;40915;50.826;4.356;2024-01-30T00:18:47;11.00;99.90
25628;DHT22;40915;50.826;4.356;2024-01-30T00:21:12;11.00;99.90
25628;DHT22;40915;50.826;4.356;2024-01-30T00:23:38;11.10;99.90
25628;DHT22;40915;50.826;4.356;2024-01-30T00:26:04;11.10;99.90
25628;DHT22;40915;50.826;4.356;2024-01-30T00:28:30;11.20;99.90
25628;DHT22;40915;50.826;4.356;2024-01-30T00:30:56;11.20;99.90
25628;DHT22;40915;50.826;4.356;2024-01-30T00:33:22;10.40;99.90
25628;DHT22;40915;50.826;4.356;2024-01-30T00:35:47;11.20;99.90
25628;DHT22;40915;50.826;4.356;2024-01-30T00:38:13;11.20;99.90
25628;DHT22;40915;50.826;4.356;2024-01-30T00:40:39;11.30;99.90
25628;DHT22;40915;50.826;4.356;2024-01-30T00:43:04;11.30;99.90
25628;DHT22;40915;50.826;4.356;2024-01-30T00:45:31;11.30;99.90
25628;DHT22;40915;50.826;4.356;2024-01-30T00:47:57;11.40;99.90
25628;DHT22;40915;50.826;4.356;2024-01-30T00:50:22;11.30;99.90
25628;DHT22;40915;50.826;4.356;2024-01-30T00:52:48;11.40;99.90
25628;DHT22;40915;50.826;4.356;2024-01-30T00:55:13;11.30;99.90
25628;DHT22;40915;50.826;4.356;2024-01-30T00:57:40;11.30;99.90
25628;DHT22;40915;50.826;4.356;2024-01-30T01:00:07;11.30;99.90
25628;DHT22;40915;50.826;4.356;2024-01-30T01:02:35;11.30;99.90
25628;DHT22;40915;50.826;4.356;2024-01-30T01:05:01;11.30;99.90
25628;DHT22;40915;50.826;4.356;2024-01-30T01:07:27;11.20;99.90
25628;DHT22;40915;50.826;4.356;2024-01-30T01:09:52;11.20;99.90
25628;DHT22;40915;50.826;4.356;2024-01-30T01:12:18;11.20;99.90
25628;DHT22;40915;50.826;4.356;2024-01-30T01:14:43;11.20;99.90
25628;DHT22;40915;50.826;4.356;2024-01-30T01:17:09;11.20;99.90
25628;DHT22;40915;50.826;4.356;2024-01-30T01:19:35;11.30;99.90
25628;DHT22;40915;50.826;4.356;2024-01-30T01:22:00;11.40;99.90
25628;DHT22;40915;50.826;4.356;2024-01-30T01:24:26;11.40;99.90
25628;DHT22;40915;50.826;4.356;2024-01-30T01:26:51;12.80;99.90
25628;DHT22;40915;50.826;4.356;2024-01-30T01:29:17;11.50;99.90
25628;DHT22;40915;50.826;4.356;2024-01-30T01:31:43;11.40;99.90
25628;DHT22;40915;50.826;4.356;2024-01-30T01:34:10;11.40;99.90
25628;DHT22;40915;50.826;4.356;2024-01-30T01:36:36;11.30;99.90
25628;DHT22;40915;50.826;4.356;2024-01-30T01:39:01;12.70;99.90
25628;DHT22;40915;50.826;4.356;2024-01-30T01:41:33;11.50;99.90
25628;DHT22;40915;50.826;4.356;2024-01-30T01:43:59;11.50;99.90
25628;DHT22;40915;50.826;4.356;2024-01-30T01:46:30;11.50;99.90
25628;DHT22;40915;50.826;4.356;2024-01-30T01:48:57;11.50;99.90
25628;DHT22;40915;50.826;4.356;2024-01-30T01:51:24;11.50;99.90
25628;DHT22;40915;50.826;4.356;2024-01-30T01:53:56;11.50;99.90
25628;DHT22;40915;50.826;4.356;2024-01-30T01:56:23;11.50;99.90
25628;DHT22;40915;50.826;4.356;2024-01-30T01:58:50;11.60;99.90
25628;DHT22;40915;50.826;4.356;2024-01-30T02:01:19;11.60;99.90
25628;DHT22;40915;50.826;4.356;2024-01-30T02:03:46;11.60;99.90
25628;DHT22;40915;50.826;4.356;2024-01-30T02:06:15;11.60;99.90
25628;DHT22;40915;50.826;4.356;2024-01-30T02:08:41;11.50;99.90
25628;DHT22;40915;50.826;4.356;2024-01-30T02:11:07;11.50;99.90
25628;DHT22;40915;50.826;4.356;2024-01-30T02:13:33;11.50;99.90
25628;DHT22;40915;50.826;4.356;2024-01-30T02:15:59;11.50;99.90
25628;DHT22;40915;50.826;4.356;2024-01-30T02:18:26;11.60;99.90
25628;DHT22;40915;50.826;4.356;2024-01-30T02:20:53;11.60;99.90
25628;DHT22;40915;50.826;4.356;2024-01-30T02:23:20;11.60;99.90
25628;DHT22;40915;50.826;4.356;2024-01-30T02:25:45;10.30;99.90
25628;DHT22;40915;50.826;4.356;2024-01-30T02:28:12;10.20;99.90
25628;DHT22;40915;50.826;4.356;2024-01-30T02:30:39;11.30;99.90
25628;DHT22;40915;50.826;4.356;2024-01-30T02:33:05;11.50;99.90
25628;DHT22;40915;50.826;4.356;2024-01-30T02:35:30;11.50;99.90
25628;DHT22;40915;50.826;4.356;2024-01-30T02:37:56;11.50;99.90
25628;DHT22;40915;50.826;4.356;2024-01-30T02:40:22;11.50;99.90
25628;DHT22;40915;50.826;4.356;2024-01-30T02:42:48;11.60;99.90
25628;DHT22;40915;50.826;4.356;2024-01-30T02:45:13;11.60;99.90
25628;DHT22;40915;50.826;4.356;2024-01-30T02:47:40;11.60;99.90
25628;DHT22;40915;50.826;4.356;2024-01-30T02:50:06;11.50;99.90
25628;DHT22;40915;50.826;4.356;2024-01-30T02:52:32;11.50;99.90
25628;DHT22;40915;50.826;4.356;2024-01-30T02:54:57;11.50;99.90
25628;DHT22;40915;50.826;4.356;2024-01-30T02:57:23;11.50;99.90
25628;DHT22;40915;50.826;4.356;2024-01-30T02:59:49;11.40;99.90
25628;DHT22;40915;50.826;4.356;2024-01-30T03:02:14;11.40;99.90
25628;DHT22;40915;50.826;4.356;2024-01-30T03:04:43;11.40;99.90
25628;DHT22;40915;50.826;4.356;2024-01-30T03:07:09;11.40;99.90
25628;DHT22;40915;50.826;4.356;2024-01-30T03:09:36;11.40;99.90
25628;DHT22;40915;50.826;4.356;2024-01-30T03:12:02;11.50;99.90
25628;DHT22;40915;50.826;4.356;2024-01-30T03:14:31;11.40;99.90
25628;DHT22;40915;50.826;4.356;2024-01-30T03:16:56;11.40;99.90
25628;DHT22;40915;50.826;4.356;2024-01-30T03:19:22;11.40;99.90
25628;DHT22;40915;50.826;4.356;2024-01-30T03:21:47;11.40;99.90
25628;DHT22;40915;50.826;4.356;2024-01-30T03:24:13;11.20;99.90
25628;DHT22;40915;50.826;4.356;2024-01-30T03:26:39;11.30;99.90
25628;DHT22;40915;50.826;4.356;2024-01-30T03:29:04;11.30;99.90
25628;DHT22;40915;50.826;4.356;2024-01-30T03:31:30;11.40;99.90
25628;DHT22;40915;50.826;4.356;2024-01-30T03:33:55;11.40;99.90
25628;DHT22;40915;50.826;4.356;2024-01-30T03:36:21;11.50;99.90
25628;DHT22;40915;50.826;4.356;2024-01-30T03:38:46;11.50;99.90
25628;DHT22;40915;50.826;4.356;2024-01-30T03:41:12;11.50;99.90
25628;DHT22;40915;50.826;4.356;2024-01-30T03:43:38;11.60;99.90
25628;DHT22;40915;50.826;4.356;2024-01-30T03:46:04;11.60;99.90
25628;DHT22;40915;50.826;4.356;2024-01-30T03:48:29;11.50;99.90
25628;DHT22;40915;50.826;4.356;2024-01-30T03:50:55;11.50;99.90
25628;DHT22;40915;50.826;4.356;2024-01-30T03:53:21;11.50;99.90
25628;DHT22;40915;50.826;4.356;2024-01-30T03:55:47;11.50;99.90
25628;DHT22;40915;50.826;4.356;2024-01-30T03:58:13;11.50;99.90
25628;DHT22;40915;50.826;4.356;2024-01-30T04:00:39;11.50;99.90
25628;DHT22;40915;50.826;4.356;2024-01-30T04:03:04;11.50;99.90
25628;DHT22;40915;50.826;4.356;2024-01-30T04:05:30;11.50;99.90
25628;DHT22;40915;50.826;4.356;2024-01-30T04:07:56;11.50;99.90
25628;DHT22;40915;50.826;4.356;2024-01-30T04:10:21;11.40;99.90
25628;DHT22;40915;50.826;4.356;2024-01-30T04:12:47;11.50;99.90
25628;DHT22;40915;50.826;4.356;2024-01-30T04:15:13;11.40;99.90
25628;DHT22;40915;50.826;4.356;2024-01-30T04:17:39;11.50;99.90
25628;DHT22;40915;50.826;4.356;2024-01-30T04:20:06;11.60;99.90
25628;DHT22;40915;50.826;4.356;2024-01-30T04:22:32;11.50;99.90
25628;DHT22;40915;50.826;4.356;2024-01-30T04:24:57;11.50;99.90
25628;DHT22;40915;50.826;4.356;2024-01-30T04:27:23;11.50;99.90
25628;DHT22;40915;50.826;4.356;2024-01-30T04:29:49;10.70;99.90
25628;DHT22;40915;50.826;4.356;2024-01-30T04:32:14;11.50;99.90
25628;DHT22;40915;50.826;4.356;2024-01-30T04:34:40;11.40;99.90
25628;DHT22;40915;50.826;4.356;2024-01-30T04:37:06;11.40;99.90
25628;DHT22;40915;50.826;4.356;2024-01-30T04:39:33;11.40;99.90
25628;DHT22;40915;50.826;4.356;2024-01-30T04:41:59;11.40;99.90
25628;DHT22;40915;50.826;4.356;2024-01-30T04:44:25;11.40;99.90
25628;DHT22;40915;50.826;4.356;2024-01-30T04:46:50;11.40;99.90
25628;DHT22;40915;50.826;4.356;2024-01-30T04:49:16;11.40;99.90
25628;DHT22;40915;50.826;4.356;2024-01-30T04:51:41;11.40;99.90
25628;DHT22;40915;50.826;4.356;2024-01-30T04:54:08;11.30;99.90
25628;DHT22;40915;50.826;4.356;2024-01-30T04:56:33;11.30;99.90
25628;DHT22;40915;50.826;4.356;2024-01-30T04:59:02;11.30;99.90
25628;DHT22;40915;50.826;4.356;2024-01-30T05:01:28;11.30;99.90
25628;DHT22;40915;50.826;4.356;2024-01-30T05:03:53;11.30;99.90
25628;DHT22;40915;50.826;4.356;2024-01-30T05:06:25;11.30;99.90
25628;DHT22;40915;50.826;4.356;2024-01-30T05:08:51;11.30;99.90
25628;DHT22;40915;50.826;4.356;2024-01-30T05:11:17;11.30;99.90
25628;DHT22;40915;50.826;4.356;2024-01-30T05:13:43;11.30;99.90
25628;DHT22;40915;50.826;4.356;2024-01-30T05:16:08;11.30;99.90
25628;DHT22;40915;50.826;4.356;2024-01-30T05:18:34;11.20;99.90
25628;DHT22;40915;50.826;4.356;2024-01-30T05:20:59;12.00;99.90
25628;DHT22;40915;50.826;4.356;2024-01-30T05:23:25;11.20;99.90
25628;DHT22;40915;50.826;4.356;2024-01-30T05:25:51;11.20;99.90
25628;DHT22;40915;50.826;4.356;2024-01-30T05:28:16;11.20;99.90
25628;DHT22;40915;50.826;4.356;2024-01-30T05:30:42;11.20;99.90
25628;DHT22;40915;50.826;4.356;2024-01-30T05:33:08;11.20;99.90
25628;DHT22;40915;50.826;4.356;2024-01-30T05:35:33;11.20;99.90
25628;DHT22;40915;50.826;4.356;2024-01-30T05:37:59;11.30;99.90
25628;DHT22;40915;50.826;4.356;2024-01-30T05:40:25;11.20;99.90
25628;DHT22;40915;50.826;4.356;2024-01-30T05:42:50;11.30;99.90
25628;DHT22;40915;50.826;4.356;2024-01-30T05:45:16;11.30;99.90
25628;DHT22;40915;50.826;4.356;2024-01-30T05:47:41;11.30;99.90
25628;DHT22;40915;50.826;4.356;2024-01-30T05:50:07;11.30;99.90
25628;DHT22;40915;50.826;4.356;2024-01-30T05:52:33;11.30;99.90
25628;DHT22;40915;50.826;4.356;2024-01-30T05:54:58;11.30;99.90
25628;DHT22;40915;50.826;4.356;2024-01-30T05:57:24;11.30;99.90
25628;DHT22;40915;50.826;4.356;2024-01-30T05:59:50;11.30;99.90
25628;DHT22;40915;50.826;4.356;2024-01-30T06:02:17;11.30;99.90
25628;DHT22;40915;50.826;4.356;2024-01-30T06:04:42;11.30;99.90
25628;DHT22;40915;50.826;4.356;2024-01-30T06:07:09;11.30;99.90
25628;DHT22;40915;50.826;4.356;2024-01-30T06:09:35;11.30;99.90
25628;DHT22;40915;50.826;4.356;2024-01-30T06:12:01;11.30;99.90
25628;DHT22;40915;50.826;4.356;2024-01-30T06:14:26;11.30;99.90
25628;DHT22;40915;50.826;4.356;2024-01-30T06:16:52;11.20;99.90
25628;DHT22;40915;50.826;4.356;2024-01-30T06:19:17;11.20;99.90
25628;DHT22;40915;50.826;4.356;2024-01-30T06:21:44;11.20;99.90
25628;DHT22;40915;50.826;4.356;2024-01-30T06:24:10;11.20;99.90
25628;DHT22;40915;50.826;4.356;2024-01-30T06:26:36;11.20;99.90
25628;DHT22;40915;50.826;4.356;2024-01-30T06:29:01;11.20;99.90
25628;DHT22;40915;50.826;4.356;2024-01-30T06:31:27;11.20;99.90
25628;DHT22;40915;50.826;4.356;2024-01-30T06:33:53;11.20;99.90
25628;DHT22;40915;50.826;4.356;2024-01-30T06:36:18;11.10;99.90
25628;DHT22;40915;50.826;4.356;2024-01-30T06:38:44;11.10;99.90
25628;DHT22;40915;50.826;4.356;2024-01-30T06:41:10;11.10;99.90
25628;DHT22;40915;50.826;4.356;2024-01-30T06:43:35;11.20;99.90
25628;DHT22;40915;50.826;4.356;2024-01-30T06:46:01;11.20;99.90
25628;DHT22;40915;50.826;4.356;2024-01-30T06:48:27;11.20;99.90
25628;DHT22;40915;50.826;4.356;2024-01-30T06:50:57;11.20;99.90
25628;DHT22;40915;50.826;4.356;2024-01-30T06:53:23;11.20;99.90
25628;DHT22;40915;50.826;4.356;2024-01-30T06:55:49;11.20;99.90
25628;DHT22;40915;50.826;4.356;2024-01-30T06:58:15;11.10;99.90
25628;DHT22;40915;50.826;4.356;2024-01-30T07:00:41;11.10;99.90
25628;DHT22;40915;50.826;4.356;2024-01-30T07:03:07;11.20;99.90
25628;DHT22;40915;50.826;4.356;2024-01-30T07:05:32;11.20;99.90
25628;DHT22;40915;50.826;4.356;2024-01-30T07:07:58;11.20;99.90
25628;DHT22;40915;50.826;4.356;2024-01-30T07:10:24;11.20;99.90
25628;DHT22;40915;50.826;4.356;2024-01-30T07:12:49;11.20;99.90
25628;DHT22;40915;50.826;4.356;2024-01-30T07:15:15;11.20;99.90
25628;DHT22;40915;50.826;4.356;2024-01-30T07:17:45;11.30;99.90
25628;DHT22;40915;50.826;4.356;2024-01-30T07:20:11;11.30;99.90
25628;DHT22;40915;50.826;4.356;2024-01-30T07:22:37;11.40;99.90
25628;DHT22;40915;50.826;4.356;2024-01-30T07:25:02;11.50;99.90
25628;DHT22;40915;50.826;4.356;2024-01-30T07:27:28;11.60;99.90
25628;DHT22;40915;50.826;4.356;2024-01-30T07:29:54;11.60;99.90
25628;DHT22;40915;50.826;4.356;2024-01-30T07:32:19;11.60;99.90
25628;DHT22;40915;50.826;4.356;2024-01-30T07:34:45;11.60;99.90
25628;DHT22;40915;50.826;4.356;2024-01-30T07:37:10;11.60;99.90
25628;DHT22;40915;50.826;4.356;2024-01-30T07:39:38;11.60;99.90
25628;DHT22;40915;50.826;4.356;2024-01-30T07:42:04;11.70;99.90
25628;DHT22;40915;50.826;4.356;2024-01-30T07:44:30;11.70;99.90
25628;DHT22;40915;50.826;4.356;2024-01-30T07:46:55;11.70;99.90
25628;DHT22;40915;50.826;4.356;2024-01-30T07:49:21;11.70;99.90
25628;DHT22;40915;50.826;4.356;2024-01-30T07:51:46;11.70;99.90
25628;DHT22;40915;50.826;4.356;2024-01-30T07:54:12;11.80;99.90
25628;DHT22;40915;50.826;4.356;2024-01-30T07:56:41;11.80;99.90
25628;DHT22;40915;50.826;4.356;2024-01-30T07:59:10;11.80;99.90
25628;DHT22;40915;50.826;4.356;2024-01-30T08:01:35;11.70;99.90
25628;DHT22;40915;50.826;4.356;2024-01-30T08:04:01;11.70;99.90
25628;DHT22;40915;50.826;4.356;2024-01-30T08:06:26;11.60;99.90
25628;DHT22;40915;50.826;4.356;2024-01-30T08:08:52;11.70;99.90
25628;DHT22;40915;50.826;4.356;2024-01-30T08:11:20;11.60;99.90
25628;DHT22;40915;50.826;4.356;2024-01-30T08:13:51;11.60;99.90
25628;DHT22;40915;50.826;4.356;2024-01-30T08:16:17;11.60;99.90
25628;DHT22;40915;50.826;4.356;2024-01-30T08:18:42;11.60;99.90
25628;DHT22;40915;50.826;4.356;2024-01-30T08:21:08;11.60;99.90
25628;DHT22;40915;50.826;4.356;2024-01-30T08:23:34;11.60;99.90
25628;DHT22;40915;50.826;4.356;2024-01-30T08:26:00;11.70;99.90
25628;DHT22;40915;50.826;4.356;2024-01-30T08:28:25;11.70;99.90
25628;DHT22;40915;50.826;4.356;2024-01-30T08:30:51;11.70;99.90
25628;DHT22;40915;50.826;4.356;2024-01-30T08:33:17;11.70;99.90
25628;DHT22;40915;50.826;4.356;2024-01-30T08:35:43;11.70;99.90
25628;DHT22;40915;50.826;4.356;2024-01-30T08:38:08;11.60;99.90
25628;DHT22;40915;50.826;4.356;2024-01-30T08:40:34;11.60;99.90
25628;DHT22;40915;50.826;4.356;2024-01-30T08:43:00;11.70;99.90
25628;DHT22;40915;50.826;4.356;2024-01-30T08:45:26;11.70;99.90
25628;DHT22;40915;50.826;4.356;2024-01-30T08:47:52;11.60;99.90
25628;DHT22;40915;50.826;4.356;2024-01-30T08:50:17;11.90;99.90
25628;DHT22;40915;50.826;4.356;2024-01-30T08:52:43;11.80;99.90
25628;DHT22;40915;50.826;4.356;2024-01-30T08:55:09;11.90;99.90
25628;DHT22;40915;50.826;4.356;2024-01-30T08:57:34;11.90;99.90
25628;DHT22;40915;50.826;4.356;2024-01-30T09:00:00;12.00;99.90
25628;DHT22;40915;50.826;4.356;2024-01-30T09:02:29;12.00;99.90
25628;DHT22;40915;50.826;4.356;2024-01-30T09:04:55;12.00;99.90
25628;DHT22;40915;50.826;4.356;2024-01-30T09:07:21;12.00;99.90
25628;DHT22;40915;50.826;4.356;2024-01-30T09:09:46;12.00;99.90
25628;DHT22;40915;50.826;4.356;2024-01-30T09:12:12;12.00;99.90
25628;DHT22;40915;50.826;4.356;2024-01-30T09:14:40;12.00;99.90
25628;DHT22;40915;50.826;4.356;2024-01-30T09:17:08;11.70;99.90
25628;DHT22;40915;50.826;4.356;2024-01-30T09:19:34;12.00;99.90
25628;DHT22;40915;50.826;4.356;2024-01-30T09:22:00;12.00;99.90
25628;DHT22;40915;50.826;4.356;2024-01-30T09:24:26;12.10;99.90
25628;DHT22;40915;50.826;4.356;2024-01-30T09:26:52;12.00;99.90
25628;DHT22;40915;50.826;4.356;2024-01-30T09:29:17;12.10;99.90
25628;DHT22;40915;50.826;4.356;2024-01-30T09:31:44;12.00;99.90
25628;DHT22;40915;50.826;4.356;2024-01-30T09:34:10;12.00;99.90
25628;DHT22;40915;50.826;4.356;2024-01-30T09:36:36;12.00;99.90
25628;DHT22;40915;50.826;4.356;2024-01-30T09:39:01;12.00;99.90
25628;DHT22;40915;50.826;4.356;2024-01-30T09:41:27;12.00;99.90
25628;DHT22;40915;50.826;4.356;2024-01-30T09:43:54;12.00;99.90
25628;DHT22;40915;50.826;4.356;2024-01-30T09:46:25;12.00;99.90
25628;DHT22;40915;50.826;4.356;2024-01-30T09:48:54;12.00;99.90
25628;DHT22;40915;50.826;4.356;2024-01-30T09:51:21;12.00;99.90
25628;DHT22;40915;50.826;4.356;2024-01-30T09:53:48;12.00;99.90
25628;DHT22;40915;50.826;4.356;2024-01-30T09:56:14;11.90;99.90
25628;DHT22;40915;50.826;4.356;2024-01-30T09:58:40;11.90;99.90
25628;DHT22;40915;50.826;4.356;2024-01-30T10:01:06;11.90;99.90
25628;DHT22;40915;50.826;4.356;2024-01-30T10:03:32;11.90;99.90
25628;DHT22;40915;50.826;4.356;2024-01-30T10:05:58;11.90;99.90
25628;DHT22;40915;50.826;4.356;2024-01-30T10:08:26;11.90;99.90
25628;DHT22;40915;50.826;4.356;2024-01-30T10:10:52;11.90;99.90
25628;DHT22;40915;50.826;4.356;2024-01-30T10:13:18;11.80;99.90
25628;DHT22;40915;50.826;4.356;2024-01-30T10:15:44;11.90;99.90
25628;DHT22;40915;50.826;4.356;2024-01-30T10:18:10;11.90;99.90
25628;DHT22;40915;50.826;4.356;2024-01-30T10:20:36;11.90;99.90
25628;DHT22;40915;50.826;4.356;2024-01-30T10:23:03;11.90;99.90
25628;DHT22;40915;50.826;4.356;2024-01-30T10:25:30;11.90;99.90
25628;DHT22;40915;50.826;4.356;2024-01-30T10:27:57;11.80;99.90
25628;DHT22;40915;50.826;4.356;2024-01-30T10:30:23;11.70;99.90
25628;DHT22;40915;50.826;4.356;2024-01-30T10:32:50;11.70;99.90
25628;DHT22;40915;50.826;4.356;2024-01-30T10:35:16;11.70;99.90
25628;DHT22;40915;50.826;4.356;2024-01-30T10:37:47;11.70;99.90
25628;DHT22;40915;50.826;4.356;2024-01-30T10:40:14;11.70;99.90
25628;DHT22;40915;50.826;4.356;2024-01-30T10:42:43;11.70;99.90
25628;DHT22;40915;50.826;4.356;2024-01-30T10:45:11;11.70;99.90
25628;DHT22;40915;50.826;4.356;2024-01-30T10:47:49;11.70;99.90
25628;DHT22;40915;50.826;4.356;2024-01-30T10:50:15;11.70;99.90
25628;DHT22;40915;50.826;4.356;2024-01-30T10:52:42;11.80;99.90
25628;DHT22;40915;50.826;4.356;2024-01-30T10:55:10;11.80;99.90
25628;DHT22;40915;50.826;4.356;2024-01-30T10:57:36;11.70;99.90
25628;DHT22;40915;50.826;4.356;2024-01-30T11:00:04;11.70;99.90
25628;DHT22;40915;50.826;4.356;2024-01-30T11:02:31;11.60;99.90
25628;DHT22;40915;50.826;4.356;2024-01-30T11:04:58;11.60;99.90
25628;DHT22;40915;50.826;4.356;2024-01-30T11:07:29;11.50;99.90
25628;DHT22;40915;50.826;4.356;2024-01-30T11:12:27;11.50;99.90
25628;DHT22;40915;50.826;4.356;2024-01-30T11:15:10;11.50;99.90
25628;DHT22;40915;50.826;4.356;2024-01-30T11:20:20;11.50;99.90
25628;DHT22;40915;50.826;4.356;2024-01-30T11:22:47;11.50;99.90
25628;DHT22;40915;50.826;4.356;2024-01-30T11:25:17;11.50;99.90
25628;DHT22;40915;50.826;4.356;2024-01-30T11:27:44;11.40;99.90
25628;DHT22;40915;50.826;4.356;2024-01-30T11:30:10;11.30;99.90
25628;DHT22;40915;50.826;4.356;2024-01-30T11:32:36;11.40;99.90
25628;DHT22;40915;50.826;4.356;2024-01-30T11:35:04;11.30;99.90
25628;DHT22;40915;50.826;4.356;2024-01-30T11:37:31;11.20;99.90
25628;DHT22;40915;50.826;4.356;2024-01-30T11:39:58;11.20;99.90
25628;DHT22;40915;50.826;4.356;2024-01-30T11:42:24;11.30;99.90
25628;DHT22;40915;50.826;4.356;2024-01-30T11:44:51;11.30;99.90
25628;DHT22;40915;50.826;4.356;2024-01-30T11:47:16;11.30;99.90
25628;DHT22;40915;50.826;4.356;2024-01-30T11:49:43;11.30;99.90
25628;DHT22;40915;50.826;4.356;2024-01-30T11:52:09;11.30;99.90
25628;DHT22;40915;50.826;4.356;2024-01-30T11:54:35;11.30;99.90
25628;DHT22;40915;50.826;4.356;2024-01-30T11:57:01;11.40;99.90
25628;DHT22;40915;50.826;4.356;2024-01-30T11:59:27;11.40;99.90
25628;DHT22;40915;50.826;4.356;2024-01-30T12:01:53;11.40;99.90
25628;DHT22;40915;50.826;4.356;2024-01-30T12:04:18;11.60;99.90
25628;DHT22;40915;50.826;4.356;2024-01-30T12:06:44;11.60;99.90
25628;DHT22;40915;50.826;4.356;2024-01-30T12:09:10;11.70;99.90
25628;DHT22;40915;50.826;4.356;2024-01-30T12:11:47;11.60;99.90
25628;DHT22;40915;50.826;4.356;2024-01-30T12:14:13;11.60;99.90
25628;DHT22;40915;50.826;4.356;2024-01-30T12:16:39;11.60;99.90
25628;DHT22;40915;50.826;4.356;2024-01-30T12:19:05;11.50;99.90
25628;DHT22;40915;50.826;4.356;2024-01-30T12:21:31;11.30;99.90
25628;DHT22;40915;50.826;4.356;2024-01-30T12:23:57;11.30;99.90
25628;DHT22;40915;50.826;4.356;2024-01-30T12:26:24;11.30;99.90
25628;DHT22;40915;50.826;4.356;2024-01-30T12:28:55;11.40;99.90
25628;DHT22;40915;50.826;4.356;2024-01-30T12:31:31;11.60;99.90
25628;DHT22;40915;50.826;4.356;2024-01-30T12:33:59;11.90;99.90
25628;DHT22;40915;50.826;4.356;2024-01-30T12:36:25;12.00;99.90
25628;DHT22;40915;50.826;4.356;2024-01-30T12:38:51;12.10;99.90
25628;DHT22;40915;50.826;4.356;2024-01-30T12:41:17;12.10;99.90
25628;DHT22;40915;50.826;4.356;2024-01-30T12:43:43;12.00;99.90
25628;DHT22;40915;50.826;4.356;2024-01-30T12:46:09;11.90;99.90
25628;DHT22;40915;50.826;4.356;2024-01-30T12:48:35;11.60;99.90
25628;DHT22;40915;50.826;4.356;2024-01-30T12:51:00;11.50;99.90
25628;DHT22;40915;50.826;4.356;2024-01-30T12:53:26;11.50;99.90
25628;DHT22;40915;50.826;4.356;2024-01-30T12:55:55;11.40;99.90
25628;DHT22;40915;50.826;4.356;2024-01-30T12:58:21;11.40;99.90
25628;DHT22;40915;50.826;4.356;2024-01-30T13:00:47;11.40;99.90
25628;DHT22;40915;50.826;4.356;2024-01-30T13:03:13;11.30;99.90
25628;DHT22;40915;50.826;4.356;2024-01-30T13:05:38;11.30;99.90
25628;DHT22;40915;50.826;4.356;2024-01-30T13:08:04;11.30;99.90
25628;DHT22;40915;50.826;4.356;2024-01-30T13:10:30;11.30;99.90
25628;DHT22;40915;50.826;4.356;2024-01-30T13:12:56;11.40;99.90
25628;DHT22;40915;50.826;4.356;2024-01-30T13:15:22;11.40;99.90
25628;DHT22;40915;50.826;4.356;2024-01-30T13:17:48;11.40;99.90
25628;DHT22;40915;50.826;4.356;2024-01-30T13:20:15;11.50;99.90
25628;DHT22;40915;50.826;4.356;2024-01-30T13:22:44;11.50;99.90
25628;DHT22;40915;50.826;4.356;2024-01-30T13:25:10;11.50;99.90
25628;DHT22;40915;50.826;4.356;2024-01-30T13:27:37;11.60;99.90
25628;DHT22;40915;50.826;4.356;2024-01-30T13:30:03;11.50;99.90
25628;DHT22;40915;50.826;4.356;2024-01-30T13:32:29;11.60;99.90
25628;DHT22;40915;50.826;4.356;2024-01-30T13:34:55;11.50;99.90
25628;DHT22;40915;50.826;4.356;2024-01-30T13:37:22;11.40;99.90
25628;DHT22;40915;50.826;4.356;2024-01-30T13:39:48;11.50;99.90
25628;DHT22;40915;50.826;4.356;2024-01-30T13:42:13;11.40;99.90
25628;DHT22;40915;50.826;4.356;2024-01-30T13:44:39;11.50;99.90
25628;DHT22;40915;50.826;4.356;2024-01-30T13:47:05;11.50;99.90
25628;DHT22;40915;50.826;4.356;2024-01-30T13:49:31;11.40;99.90
25628;DHT22;40915;50.826;4.356;2024-01-30T13:51:56;11.50;99.90
25628;DHT22;40915;50.826;4.356;2024-01-30T13:54:23;11.50;99.90
25628;DHT22;40915;50.826;4.356;2024-01-30T13:56:52;11.50;99.90
25628;DHT22;40915;50.826;4.356;2024-01-30T13:59:18;11.50;99.90
25628;DHT22;40915;50.826;4.356;2024-01-30T14:01:49;11.50;99.90
25628;DHT22;40915;50.826;4.356;2024-01-30T14:04:14;11.30;99.90
25628;DHT22;40915;50.826;4.356;2024-01-30T14:06:40;11.20;99.90
25628;DHT22;40915;50.826;4.356;2024-01-30T14:09:08;11.20;99.90
25628;DHT22;40915;50.826;4.356;2024-01-30T14:11:33;11.10;99.90
25628;DHT22;40915;50.826;4.356;2024-01-30T14:13:59;11.10;99.90
25628;DHT22;40915;50.826;4.356;2024-01-30T14:16:24;11.20;99.90
25628;DHT22;40915;50.826;4.356;2024-01-30T14:18:50;11.20;99.90
25628;DHT22;40915;50.826;4.356;2024-01-30T14:21:16;11.20;99.90
25628;DHT22;40915;50.826;4.356;2024-01-30T14:23:41;11.10;99.90
25628;DHT22;40915;50.826;4.356;2024-01-30T14:26:07;11.10;99.90
25628;DHT22;40915;50.826;4.356;2024-01-30T14:28:33;11.10;99.90
25628;DHT22;40915;50.826;4.356;2024-01-30T14:30:59;11.00;99.90
25628;DHT22;40915;50.826;4.356;2024-01-30T14:33:25;11.00;99.90
25628;DHT22;40915;50.826;4.356;2024-01-30T14:35:51;10.90;99.90
25628;DHT22;40915;50.826;4.356;2024-01-30T14:38:17;10.90;99.90
25628;DHT22;40915;50.826;4.356;2024-01-30T14:40:43;10.90;99.90
25628;DHT22;40915;50.826;4.356;2024-01-30T14:43:08;10.90;99.90
25628;DHT22;40915;50.826;4.356;2024-01-30T14:45:34;10.90;99.90
25628;DHT22;40915;50.826;4.356;2024-01-30T14:48:00;10.90;99.90
25628;DHT22;40915;50.826;4.356;2024-01-30T14:50:26;10.80;99.90
25628;DHT22;40915;50.826;4.356;2024-01-30T14:52:53;10.80;99.90
25628;DHT22;40915;50.826;4.356;2024-01-30T14:55:19;10.90;99.90
25628;DHT22;40915;50.826;4.356;2024-01-30T14:57:45;10.80;99.90
25628;DHT22;40915;50.826;4.356;2024-01-30T15:00:12;10.80;99.90
25628;DHT22;40915;50.826;4.356;2024-01-30T15:02:37;10.70;99.90
25628;DHT22;40915;50.826;4.356;2024-01-30T15:05:04;10.60;99.90
25628;DHT22;40915;50.826;4.356;2024-01-30T15:07:29;10.60;99.90
25628;DHT22;40915;50.826;4.356;2024-01-30T15:09:55;10.50;99.90
25628;DHT22;40915;50.826;4.356;2024-01-30T15:12:21;10.40;99.90
25628;DHT22;40915;50.826;4.356;2024-01-30T15:14:46;10.40;99.90
25628;DHT22;40915;50.826;4.356;2024-01-30T15:17:19;10.50;99.90
25628;DHT22;40915;50.826;4.356;2024-01-30T15:19:47;10.40;99.90
25628;DHT22;40915;50.826;4.356;2024-01-30T15:22:13;10.40;99.90
25628;DHT22;40915;50.826;4.356;2024-01-30T15:24:39;10.40;99.90
25628;DHT22;40915;50.826;4.356;2024-01-30T15:27:05;10.40;99.90
25628;DHT22;40915;50.826;4.356;2024-01-30T15:29:31;10.40;99.90